sensor_id;sensor_type;location;lat;lon;timestamp;pressure;altitude;pressure_sealevel;temperature;humidity
68594;BME280;55563;52.416;13.548;2023-07-02T00:01:58;99907.34;;;18.23;100.00
68594;BME280;55563;52.416;13.548;2023-07-02T00:03:59;99915.81;;;18.25;100.00
68594;BME280;55563;52.416;13.548;2023-07-02T00:05:59;99926.53;;;18.17;100.00
68594;BME280;55563;52.416;13.548;2023-07-02T00:08:00;99920.53;;;18.20;100.00
68594;BME280;55563;52.416;13.548;2023-07-02T00:10:01;99923.50;;;18.18;100.00
68594;BME280;55563;52.416;13.548;2023-07-02T00:12:02;99921.31;;;18.20;100.00
68594;BME280;55563;52.416;13.548;2023-07-02T00:14:03;99920.41;;;18.16;100.00
68594;BME280;55563;52.416;13.548;2023-07-02T00:16:04;99915.88;;;18.17;100.00
68594;BME280;55563;52.416;13.548;2023-07-02T00:18:04;99919.75;;;18.19;100.00
68594;BME280;55563;52.416;13.548;2023-07-02T00:20:06;99919.50;;;18.12;100.00
68594;BME280;55563;52.416;13.548;2023-07-02T00:22:14;99923.72;;;18.13;100.00
68594;BME280;55563;52.416;13.548;2023-07-02T00:24:16;99926.06;;;18.15;100.00
68594;BME280;55563;52.416;13.548;2023-07-02T00:26:16;99933.13;;;18.11;100.00
68594;BME280;55563;52.416;13.548;2023-07-02T00:28:17;99930.94;;;18.13;100.00
68594;BME280;55563;52.416;13.548;2023-07-02T00:30:18;99923.00;;;18.04;100.00
68594;BME280;55563;52.416;13.548;2023-07-02T00:32:19;99921.25;;;18.08;100.00
68594;BME280;55563;52.416;13.548;2023-07-02T00:34:20;99925.34;;;18.06;100.00
68594;BME280;55563;52.416;13.548;2023-07-02T00:36:20;99919.84;;;18.11;100.00
68594;BME280;55563;52.416;13.548;2023-07-02T00:38:21;99919.06;;;18.10;100.00
68594;BME280;55563;52.416;13.548;2023-07-02T00:40:22;99922.69;;;18.06;100.00
68594;BME280;55563;52.416;13.548;2023-07-02T00:42:23;99932.53;;;18.05;100.00
68594;BME280;55563;52.416;13.548;2023-07-02T00:44:23;99932.84;;;18.04;100.00
68594;BME280;55563;52.416;13.548;2023-07-02T00:46:26;99934.00;;;18.03;100.00
68594;BME280;55563;52.416;13.548;2023-07-02T00:48:27;99927.03;;;18.10;100.00
68594;BME280;55563;52.416;13.548;2023-07-02T00:50:27;99929.69;;;18.10;100.00
68594;BME280;55563;52.416;13.548;2023-07-02T00:52:29;99929.44;;;18.03;100.00
68594;BME280;55563;52.416;13.548;2023-07-02T00:54:30;99935.19;;;18.05;100.00
68594;BME280;55563;52.416;13.548;2023-07-02T00:56:31;99941.31;;;18.06;100.00
68594;BME280;55563;52.416;13.548;2023-07-02T00:58:34;99938.53;;;18.02;100.00
68594;BME280;55563;52.416;13.548;2023-07-02T01:00:38;99937.44;;;18.03;100.00
68594;BME280;55563;52.416;13.548;2023-07-02T01:02:38;99934.31;;;18.01;100.00
68594;BME280;55563;52.416;13.548;2023-07-02T01:04:43;99938.84;;;18.01;100.00
68594;BME280;55563;52.416;13.548;2023-07-02T01:06:50;99925.22;;;18.02;100.00
68594;BME280;55563;52.416;13.548;2023-07-02T01:08:52;99935.47;;;17.92;100.00
68594;BME280;55563;52.416;13.548;2023-07-02T01:10:55;99930.28;;;17.95;100.00
68594;BME280;55563;52.416;13.548;2023-07-02T01:13:01;99932.22;;;17.86;100.00
68594;BME280;55563;52.416;13.548;2023-07-02T01:15:04;99937.66;;;17.90;100.00
68594;BME280;55563;52.416;13.548;2023-07-02T01:17:06;99931.25;;;17.91;100.00
68594;BME280;55563;52.416;13.548;2023-07-02T01:19:09;99931.25;;;17.91;100.00
68594;BME280;55563;52.416;13.548;2023-07-02T01:21:11;99931.25;;;17.91;100.00
68594;BME280;55563;52.416;13.548;2023-07-02T01:23:12;99933.47;;;17.89;100.00
68594;BME280;55563;52.416;13.548;2023-07-02T01:25:15;99944.53;;;17.91;100.00
68594;BME280;55563;52.416;13.548;2023-07-02T01:27:20;99944.53;;;17.91;100.00
68594;BME280;55563;52.416;13.548;2023-07-02T01:29:21;99943.75;;;17.90;100.00
68594;BME280;55563;52.416;13.548;2023-07-02T01:31:22;99943.63;;;17.86;100.00
68594;BME280;55563;52.416;13.548;2023-07-02T01:33:25;99942.34;;;17.93;100.00
68594;BME280;55563;52.416;13.548;2023-07-02T01:35:26;99946.94;;;17.83;100.00
68594;BME280;55563;52.416;13.548;2023-07-02T01:37:26;99950.38;;;17.84;100.00
68594;BME280;55563;52.416;13.548;2023-07-02T01:39:27;99947.38;;;17.85;100.00
68594;BME280;55563;52.416;13.548;2023-07-02T01:41:27;99950.50;;;17.88;100.00
68594;BME280;55563;52.416;13.548;2023-07-02T01:43:28;99945.69;;;17.81;100.00
68594;BME280;55563;52.416;13.548;2023-07-02T01:45:29;99950.81;;;17.86;100.00
68594;BME280;55563;52.416;13.548;2023-07-02T01:47:29;99951.00;;;17.81;100.00
68594;BME280;55563;52.416;13.548;2023-07-02T01:49:30;99947.72;;;17.84;100.00
68594;BME280;55563;52.416;13.548;2023-07-02T01:51:31;99952.09;;;17.80;100.00
68594;BME280;55563;52.416;13.548;2023-07-02T01:53:32;99958.69;;;17.82;100.00
68594;BME280;55563;52.416;13.548;2023-07-02T01:55:32;99958.09;;;17.77;100.00
68594;BME280;55563;52.416;13.548;2023-07-02T01:57:33;99959.00;;;17.81;100.00
68594;BME280;55563;52.416;13.548;2023-07-02T01:59:34;99968.41;;;17.78;100.00
68594;BME280;55563;52.416;13.548;2023-07-02T02:01:34;99975.59;;;17.78;100.00
68594;BME280;55563;52.416;13.548;2023-07-02T02:03:35;99971.69;;;17.75;100.00
68594;BME280;55563;52.416;13.548;2023-07-02T02:05:38;99972.03;;;17.74;100.00
68594;BME280;55563;52.416;13.548;2023-07-02T02:07:39;99972.34;;;17.72;100.00
68594;BME280;55563;52.416;13.548;2023-07-02T02:09:40;99978.88;;;17.75;100.00
68594;BME280;55563;52.416;13.548;2023-07-02T02:11:44;99975.31;;;17.71;100.00
68594;BME280;55563;52.416;13.548;2023-07-02T02:13:45;99963.28;;;17.73;100.00
68594;BME280;55563;52.416;13.548;2023-07-02T02:15:45;99966.56;;;17.70;100.00
68594;BME280;55563;52.416;13.548;2023-07-02T02:17:46;99967.22;;;17.67;100.00
68594;BME280;55563;52.416;13.548;2023-07-02T02:19:47;99956.56;;;17.67;100.00
68594;BME280;55563;52.416;13.548;2023-07-02T02:21:47;99957.34;;;17.68;100.00
68594;BME280;55563;52.416;13.548;2023-07-02T02:23:48;99959.22;;;17.67;100.00
68594;BME280;55563;52.416;13.548;2023-07-02T02:25:49;99966.44;;;17.67;100.00
68594;BME280;55563;52.416;13.548;2023-07-02T02:27:49;99968.47;;;17.61;100.00
68594;BME280;55563;52.416;13.548;2023-07-02T02:29:50;99973.50;;;17.63;100.00
68594;BME280;55563;52.416;13.548;2023-07-02T02:31:51;99978.94;;;17.58;100.00
68594;BME280;55563;52.416;13.548;2023-07-02T02:33:52;99977.25;;;17.62;100.00
68594;BME280;55563;52.416;13.548;2023-07-02T02:35:54;99979.25;;;17.56;100.00
68594;BME280;55563;52.416;13.548;2023-07-02T02:37:54;99980.03;;;17.57;100.00
68594;BME280;55563;52.416;13.548;2023-07-02T02:39:56;99983.47;;;17.57;100.00
68594;BME280;55563;52.416;13.548;2023-07-02T02:41:59;99978.94;;;17.58;100.00
68594;BME280;55563;52.416;13.548;2023-07-02T02:43:59;99976.59;;;17.56;100.00
68594;BME280;55563;52.416;13.548;2023-07-02T02:46:00;99979.91;;;17.53;100.00
68594;BME280;55563;52.416;13.548;2023-07-02T02:48:01;99971.81;;;17.50;100.00
68594;BME280;55563;52.416;13.548;2023-07-02T02:50:02;99970.13;;;17.45;100.00
68594;BME280;55563;52.416;13.548;2023-07-02T02:52:05;99977.13;;;17.50;100.00
68594;BME280;55563;52.416;13.548;2023-07-02T02:54:06;99975.44;;;17.45;100.00
68594;BME280;55563;52.416;13.548;2023-07-02T02:56:07;99972.47;;;17.38;100.00
68594;BME280;55563;52.416;13.548;2023-07-02T02:58:07;99972.28;;;17.43;100.00
68594;BME280;55563;52.416;13.548;2023-07-02T03:00:09;99972.16;;;17.39;100.00
68594;BME280;55563;52.416;13.548;2023-07-02T03:02:10;99980.56;;;17.41;100.00
68594;BME280;55563;52.416;13.548;2023-07-02T03:04:10;99981.53;;;17.37;100.00
68594;BME280;55563;52.416;13.548;2023-07-02T03:06:12;99981.72;;;17.32;100.00
68594;BME280;55563;52.416;13.548;2023-07-02T03:08:14;99982.50;;;17.32;100.00
68594;BME280;55563;52.416;13.548;2023-07-02T03:10:15;99993.28;;;17.27;100.00
68594;BME280;55563;52.416;13.548;2023-07-02T03:12:15;99992.97;;;17.29;100.00
68594;BME280;55563;52.416;13.548;2023-07-02T03:14:16;99989.44;;;17.16;100.00
68594;BME280;55563;52.416;13.548;2023-07-02T03:16:17;99989.84;;;17.27;100.00
68594;BME280;55563;52.416;13.548;2023-07-02T03:18:17;99989.41;;;17.25;100.00
68594;BME280;55563;52.416;13.548;2023-07-02T03:20:18;99996.91;;;17.23;100.00
68594;BME280;55563;52.416;13.548;2023-07-02T03:22:19;99989.09;;;17.18;100.00
68594;BME280;55563;52.416;13.548;2023-07-02T03:24:21;99987.88;;;17.15;100.00
68594;BME280;55563;52.416;13.548;2023-07-02T03:26:21;99988.03;;;17.19;100.00
68594;BME280;55563;52.416;13.548;2023-07-02T03:28:23;99994.13;;;17.19;100.00
68594;BME280;55563;52.416;13.548;2023-07-02T03:30:24;99993.16;;;17.24;100.00
68594;BME280;55563;52.416;13.548;2023-07-02T03:32:24;99992.69;;;17.22;100.00
68594;BME280;55563;52.416;13.548;2023-07-02T03:34:25;99996.47;;;17.12;100.00
68594;BME280;55563;52.416;13.548;2023-07-02T03:36:26;99995.97;;;17.19;100.00
68594;BME280;55563;52.416;13.548;2023-07-02T03:38:26;100003.03;;;17.15;100.00
68594;BME280;55563;52.416;13.548;2023-07-02T03:40:27;99995.69;;;17.20;100.00
68594;BME280;55563;52.416;13.548;2023-07-02T03:42:28;99998.34;;;17.20;100.00
68594;BME280;55563;52.416;13.548;2023-07-02T03:44:28;99993.97;;;17.16;100.00
68594;BME280;55563;52.416;13.548;2023-07-02T03:46:29;100006.91;;;17.17;100.00
68594;BME280;55563;52.416;13.548;2023-07-02T03:48:31;99996.47;;;17.21;100.00
68594;BME280;55563;52.416;13.548;2023-07-02T03:50:32;99994.91;;;17.20;100.00
68594;BME280;55563;52.416;13.548;2023-07-02T03:52:33;99998.63;;;17.19;100.00
68594;BME280;55563;52.416;13.548;2023-07-02T03:54:33;99999.28;;;17.16;100.00
68594;BME280;55563;52.416;13.548;2023-07-02T03:56:34;100006.00;;;17.13;100.00
68594;BME280;55563;52.416;13.548;2023-07-02T03:58:35;100007.69;;;17.18;100.00
68594;BME280;55563;52.416;13.548;2023-07-02T04:00:35;100008.47;;;17.18;100.00
68594;BME280;55563;52.416;13.548;2023-07-02T04:02:36;100011.00;;;17.15;100.00
68594;BME280;55563;52.416;13.548;2023-07-02T04:04:37;100012.88;;;17.14;100.00
68594;BME280;55563;52.416;13.548;2023-07-02T04:06:37;100008.19;;;17.11;100.00
68594;BME280;55563;52.416;13.548;2023-07-02T04:08:38;100014.59;;;17.10;100.00
68594;BME280;55563;52.416;13.548;2023-07-02T04:10:38;100011.47;;;17.17;100.00
68594;BME280;55563;52.416;13.548;2023-07-02T04:12:39;100013.19;;;17.21;100.00
68594;BME280;55563;52.416;13.548;2023-07-02T04:14:39;100023.63;;;17.18;100.00
68594;BME280;55563;52.416;13.548;2023-07-02T04:16:42;100027.06;;;17.18;100.00
68594;BME280;55563;52.416;13.548;2023-07-02T04:18:44;100035.50;;;17.20;100.00
68594;BME280;55563;52.416;13.548;2023-07-02T04:20:44;100026.75;;;17.20;100.00
68594;BME280;55563;52.416;13.548;2023-07-02T04:22:46;100027.84;;;17.19;100.00
68594;BME280;55563;52.416;13.548;2023-07-02T04:24:46;100041.59;;;17.21;100.00
68594;BME280;55563;52.416;13.548;2023-07-02T04:26:49;100037.38;;;17.20;100.00
68594;BME280;55563;52.416;13.548;2023-07-02T04:28:49;100037.38;;;17.20;100.00
68594;BME280;55563;52.416;13.548;2023-07-02T04:30:50;100043.94;;;17.22;100.00
68594;BME280;55563;52.416;13.548;2023-07-02T04:32:52;100034.56;;;17.25;100.00
68594;BME280;55563;52.416;13.548;2023-07-02T04:34:52;100041.28;;;17.31;100.00
68594;BME280;55563;52.416;13.548;2023-07-02T04:36:53;100045.03;;;17.30;100.00
68594;BME280;55563;52.416;13.548;2023-07-02T04:38:54;100051.91;;;17.22;100.00
68594;BME280;55563;52.416;13.548;2023-07-02T04:40:55;100040.16;;;17.32;100.00
68594;BME280;55563;52.416;13.548;2023-07-02T04:43:01;100046.72;;;17.34;100.00
68594;BME280;55563;52.416;13.548;2023-07-02T04:45:06;100042.47;;;17.42;100.00
68594;BME280;55563;52.416;13.548;2023-07-02T04:47:09;100045.97;;;17.72;100.00
68594;BME280;55563;52.416;13.548;2023-07-02T04:49:09;100038.38;;;17.62;100.00
68594;BME280;55563;52.416;13.548;2023-07-02T04:51:10;100040.06;;;17.66;100.00
68594;BME280;55563;52.416;13.548;2023-07-02T04:53:11;100049.66;;;17.88;100.00
68594;BME280;55563;52.416;13.548;2023-07-02T04:55:11;100053.03;;;17.68;100.00
68594;BME280;55563;52.416;13.548;2023-07-02T04:57:12;100055.47;;;17.81;100.00
68594;BME280;55563;52.416;13.548;2023-07-02T04:59:15;100060.84;;;18.02;100.00
68594;BME280;55563;52.416;13.548;2023-07-02T05:01:16;100063.56;;;18.44;100.00
68594;BME280;55563;52.416;13.548;2023-07-02T05:03:16;100065.97;;;18.99;100.00
68594;BME280;55563;52.416;13.548;2023-07-02T05:05:17;100053.78;;;18.77;100.00
68594;BME280;55563;52.416;13.548;2023-07-02T05:07:18;100057.84;;;18.33;100.00
68594;BME280;55563;52.416;13.548;2023-07-02T05:09:19;100050.91;;;18.41;100.00
68594;BME280;55563;52.416;13.548;2023-07-02T05:11:20;100058.44;;;18.39;100.00
68594;BME280;55563;52.416;13.548;2023-07-02T05:13:20;100053.63;;;18.53;100.00
68594;BME280;55563;52.416;13.548;2023-07-02T05:15:23;100049.41;;;18.72;100.00
68594;BME280;55563;52.416;13.548;2023-07-02T05:17:24;100052.25;;;19.66;100.00
68594;BME280;55563;52.416;13.548;2023-07-02T05:19:24;100048.84;;;20.42;100.00
68594;BME280;55563;52.416;13.548;2023-07-02T05:21:25;100058.25;;;21.19;100.00
68594;BME280;55563;52.416;13.548;2023-07-02T05:23:25;100062.13;;;21.85;100.00
68594;BME280;55563;52.416;13.548;2023-07-02T05:25:26;100071.53;;;21.31;100.00
68594;BME280;55563;52.416;13.548;2023-07-02T05:27:27;100073.50;;;22.13;100.00
68594;BME280;55563;52.416;13.548;2023-07-02T05:29:27;100071.94;;;22.47;100.00
68594;BME280;55563;52.416;13.548;2023-07-02T05:31:28;100069.38;;;21.84;100.00
68594;BME280;55563;52.416;13.548;2023-07-02T05:33:28;100068.34;;;20.70;100.00
68594;BME280;55563;52.416;13.548;2023-07-02T05:35:31;100069.44;;;20.41;100.00
68594;BME280;55563;52.416;13.548;2023-07-02T05:37:32;100067.09;;;20.16;100.00
68594;BME280;55563;52.416;13.548;2023-07-02T05:39:33;100060.22;;;19.78;100.00
68594;BME280;55563;52.416;13.548;2023-07-02T05:41:34;100071.50;;;20.48;100.00
68594;BME280;55563;52.416;13.548;2023-07-02T05:43:35;100070.22;;;20.06;100.00
68594;BME280;55563;52.416;13.548;2023-07-02T05:45:35;100080.13;;;19.93;100.00
68594;BME280;55563;52.416;13.548;2023-07-02T05:47:36;100080.56;;;19.83;100.00
68594;BME280;55563;52.416;13.548;2023-07-02T05:49:37;100080.78;;;19.78;100.00
68594;BME280;55563;52.416;13.548;2023-07-02T05:51:37;100091.22;;;19.58;100.00
68594;BME280;55563;52.416;13.548;2023-07-02T05:53:38;100091.34;;;20.11;100.00
68594;BME280;55563;52.416;13.548;2023-07-02T05:55:39;100092.06;;;21.00;100.00
68594;BME280;55563;52.416;13.548;2023-07-02T05:57:39;100097.25;;;20.80;100.00
68594;BME280;55563;52.416;13.548;2023-07-02T05:59:40;100100.97;;;20.64;100.00
68594;BME280;55563;52.416;13.548;2023-07-02T06:01:41;100101.16;;;20.31;100.00
68594;BME280;55563;52.416;13.548;2023-07-02T06:03:42;100093.38;;;20.14;100.00
68594;BME280;55563;52.416;13.548;2023-07-02T06:05:44;100086.78;;;20.23;100.00
68594;BME280;55563;52.416;13.548;2023-07-02T06:07:44;100091.78;;;20.25;100.00
68594;BME280;55563;52.416;13.548;2023-07-02T06:09:45;100098.19;;;20.60;100.00
68594;BME280;55563;52.416;13.548;2023-07-02T06:11:45;100101.47;;;20.41;100.00
68594;BME280;55563;52.416;13.548;2023-07-02T06:13:46;100095.69;;;20.27;100.00
68594;BME280;55563;52.416;13.548;2023-07-02T06:15:47;100102.13;;;20.38;100.00
68594;BME280;55563;52.416;13.548;2023-07-02T06:17:47;100107.16;;;21.08;100.00
68594;BME280;55563;52.416;13.548;2023-07-02T06:19:48;100101.34;;;21.06;100.00
68594;BME280;55563;52.416;13.548;2023-07-02T06:21:48;100098.56;;;21.58;100.00
68594;BME280;55563;52.416;13.548;2023-07-02T06:23:49;100089.91;;;21.49;100.00
68594;BME280;55563;52.416;13.548;2023-07-02T06:25:50;100082.00;;;21.52;100.00
68594;BME280;55563;52.416;13.548;2023-07-02T06:27:53;100084.03;;;21.90;100.00
68594;BME280;55563;52.416;13.548;2023-07-02T06:29:55;100085.75;;;22.49;100.00
68594;BME280;55563;52.416;13.548;2023-07-02T06:31:56;100087.69;;;21.82;100.00
68594;BME280;55563;52.416;13.548;2023-07-02T06:33:56;100093.59;;;22.23;100.00
68594;BME280;55563;52.416;13.548;2023-07-02T06:35:57;100089.66;;;21.85;100.00
68594;BME280;55563;52.416;13.548;2023-07-02T06:37:58;100081.91;;;21.80;100.00
68594;BME280;55563;52.416;13.548;2023-07-02T06:39:58;100082.50;;;21.89;100.00
68594;BME280;55563;52.416;13.548;2023-07-02T06:42:00;100080.84;;;21.38;100.00
68594;BME280;55563;52.416;13.548;2023-07-02T06:44:04;100084.97;;;21.35;100.00
68594;BME280;55563;52.416;13.548;2023-07-02T06:46:04;100074.94;;;21.16;100.00
68594;BME280;55563;52.416;13.548;2023-07-02T06:48:05;100069.66;;;21.04;100.00
68594;BME280;55563;52.416;13.548;2023-07-02T06:50:05;100072.91;;;20.98;100.00
68594;BME280;55563;52.416;13.548;2023-07-02T06:52:06;100077.13;;;20.99;100.00
68594;BME280;55563;52.416;13.548;2023-07-02T06:54:07;100091.13;;;21.67;100.00
68594;BME280;55563;52.416;13.548;2023-07-02T06:56:08;100087.94;;;22.08;100.00
68594;BME280;55563;52.416;13.548;2023-07-02T06:58:09;100093.53;;;22.54;100.00
68594;BME280;55563;52.416;13.548;2023-07-02T07:00:10;100093.81;;;22.68;100.00
68594;BME280;55563;52.416;13.548;2023-07-02T07:02:11;100091.06;;;22.84;98.73
68594;BME280;55563;52.416;13.548;2023-07-02T07:04:11;100089.81;;;22.78;99.81
68594;BME280;55563;52.416;13.548;2023-07-02T07:06:12;100092.81;;;23.15;99.00
68594;BME280;55563;52.416;13.548;2023-07-02T07:08:13;100091.03;;;22.65;100.00
68594;BME280;55563;52.416;13.548;2023-07-02T07:10:13;100087.78;;;22.55;100.00
68594;BME280;55563;52.416;13.548;2023-07-02T07:12:14;100091.84;;;21.95;100.00
68594;BME280;55563;52.416;13.548;2023-07-02T07:14:14;100094.41;;;21.92;100.00
68594;BME280;55563;52.416;13.548;2023-07-02T07:16:15;100095.25;;;22.11;100.00
68594;BME280;55563;52.416;13.548;2023-07-02T07:18:16;100089.75;;;21.57;100.00
68594;BME280;55563;52.416;13.548;2023-07-02T07:20:18;100084.56;;;21.49;100.00
68594;BME280;55563;52.416;13.548;2023-07-02T07:22:19;100085.47;;;21.25;100.00
68594;BME280;55563;52.416;13.548;2023-07-02T07:24:19;100086.09;;;21.18;100.00
68594;BME280;55563;52.416;13.548;2023-07-02T07:26:20;100093.47;;;21.09;100.00
68594;BME280;55563;52.416;13.548;2023-07-02T07:28:21;100091.38;;;21.03;100.00
68594;BME280;55563;52.416;13.548;2023-07-02T07:30:21;100097.25;;;21.08;100.00
68594;BME280;55563;52.416;13.548;2023-07-02T07:32:23;100095.44;;;21.12;100.00
68594;BME280;55563;52.416;13.548;2023-07-02T07:34:23;100089.28;;;21.40;100.00
68594;BME280;55563;52.416;13.548;2023-07-02T07:36:24;100086.13;;;21.65;100.00
68594;BME280;55563;52.416;13.548;2023-07-02T07:38:24;100085.97;;;22.05;100.00
68594;BME280;55563;52.416;13.548;2023-07-02T07:40:26;100089.22;;;22.14;100.00
68594;BME280;55563;52.416;13.548;2023-07-02T07:42:26;100084.44;;;22.58;100.00
68594;BME280;55563;52.416;13.548;2023-07-02T07:44:27;100084.22;;;22.13;100.00
68594;BME280;55563;52.416;13.548;2023-07-02T07:46:29;100091.41;;;22.44;98.84
68594;BME280;55563;52.416;13.548;2023-07-02T07:48:30;100102.88;;;22.09;98.69
68594;BME280;55563;52.416;13.548;2023-07-02T07:50:30;100099.25;;;21.70;98.04
68594;BME280;55563;52.416;13.548;2023-07-02T07:52:31;100101.81;;;21.36;98.77
68594;BME280;55563;52.416;13.548;2023-07-02T07:54:32;100116.03;;;21.24;100.00
68594;BME280;55563;52.416;13.548;2023-07-02T07:56:33;100119.66;;;21.31;100.00
68594;BME280;55563;52.416;13.548;2023-07-02T07:58:33;100113.69;;;21.22;100.00
68594;BME280;55563;52.416;13.548;2023-07-02T08:00:34;100114.94;;;21.13;100.00
68594;BME280;55563;52.416;13.548;2023-07-02T08:02:34;100122.03;;;20.93;100.00
68594;BME280;55563;52.416;13.548;2023-07-02T08:04:35;100130.72;;;20.90;100.00
68594;BME280;55563;52.416;13.548;2023-07-02T08:06:35;100129.84;;;20.86;100.00
68594;BME280;55563;52.416;13.548;2023-07-02T08:08:36;100119.31;;;20.65;100.00
68594;BME280;55563;52.416;13.548;2023-07-02T08:10:37;100125.31;;;20.74;100.00
68594;BME280;55563;52.416;13.548;2023-07-02T08:12:37;100133.47;;;20.54;100.00
68594;BME280;55563;52.416;13.548;2023-07-02T08:14:38;100137.09;;;20.33;100.00
68594;BME280;55563;52.416;13.548;2023-07-02T08:16:38;100131.38;;;20.35;100.00
68594;BME280;55563;52.416;13.548;2023-07-02T08:18:39;100139.59;;;20.30;100.00
68594;BME280;55563;52.416;13.548;2023-07-02T08:20:40;100125.59;;;20.21;100.00
68594;BME280;55563;52.416;13.548;2023-07-02T08:22:41;100132.47;;;20.10;100.00
68594;BME280;55563;52.416;13.548;2023-07-02T08:24:41;100138.03;;;20.17;100.00
68594;BME280;55563;52.416;13.548;2023-07-02T08:26:42;100137.50;;;20.11;100.00
68594;BME280;55563;52.416;13.548;2023-07-02T08:28:45;100136.94;;;19.93;100.00
68594;BME280;55563;52.416;13.548;2023-07-02T08:30:45;100141.03;;;19.91;100.00
68594;BME280;55563;52.416;13.548;2023-07-02T08:32:46;100142.81;;;19.87;100.00
68594;BME280;55563;52.416;13.548;2023-07-02T08:34:47;100145.94;;;19.89;100.00
68594;BME280;55563;52.416;13.548;2023-07-02T08:36:47;100150.38;;;19.85;100.00
68594;BME280;55563;52.416;13.548;2023-07-02T08:38:48;100146.34;;;19.91;100.00
68594;BME280;55563;52.416;13.548;2023-07-02T08:40:49;100153.38;;;19.95;100.00
68594;BME280;55563;52.416;13.548;2023-07-02T08:42:50;100155.03;;;19.88;100.00
68594;BME280;55563;52.416;13.548;2023-07-02T08:44:53;100165.44;;;19.69;100.00
68594;BME280;55563;52.416;13.548;2023-07-02T08:46:54;100168.22;;;19.60;100.00
68594;BME280;55563;52.416;13.548;2023-07-02T08:48:57;100167.09;;;19.61;100.00
68594;BME280;55563;52.416;13.548;2023-07-02T08:50:57;100169.63;;;19.45;100.00
68594;BME280;55563;52.416;13.548;2023-07-02T08:52:58;100162.41;;;19.46;100.00
68594;BME280;55563;52.416;13.548;2023-07-02T08:54:59;100150.97;;;19.57;100.00
68594;BME280;55563;52.416;13.548;2023-07-02T08:56:59;100149.38;;;19.44;100.00
68594;BME280;55563;52.416;13.548;2023-07-02T08:59:08;100149.13;;;19.37;100.00
68594;BME280;55563;52.416;13.548;2023-07-02T09:01:11;100148.41;;;19.49;100.00
68594;BME280;55563;52.416;13.548;2023-07-02T09:03:13;100147.94;;;19.80;100.00
68594;BME280;55563;52.416;13.548;2023-07-02T09:05:15;100155.47;;;19.78;100.00
68594;BME280;55563;52.416;13.548;2023-07-02T09:07:16;100157.44;;;19.69;100.00
68594;BME280;55563;52.416;13.548;2023-07-02T09:09:16;100162.00;;;19.68;100.00
68594;BME280;55563;52.416;13.548;2023-07-02T09:11:17;100164.44;;;19.61;100.00
68594;BME280;55563;52.416;13.548;2023-07-02T09:13:19;100150.53;;;19.55;100.00
68594;BME280;55563;52.416;13.548;2023-07-02T09:15:19;100153.81;;;19.85;100.00
68594;BME280;55563;52.416;13.548;2023-07-02T09:17:20;100147.47;;;19.66;100.00
68594;BME280;55563;52.416;13.548;2023-07-02T09:19:20;100158.50;;;19.23;100.00
68594;BME280;55563;52.416;13.548;2023-07-02T09:21:21;100164.06;;;19.50;100.00
68594;BME280;55563;52.416;13.548;2023-07-02T09:23:33;100157.34;;;19.77;100.00
68594;BME280;55563;52.416;13.548;2023-07-02T09:25:37;100163.53;;;19.57;100.00
68594;BME280;55563;52.416;13.548;2023-07-02T09:27:40;100163.50;;;19.45;100.00
68594;BME280;55563;52.416;13.548;2023-07-02T09:29:41;100165.44;;;19.56;100.00
68594;BME280;55563;52.416;13.548;2023-07-02T09:31:43;100165.13;;;19.37;100.00
68594;BME280;55563;52.416;13.548;2023-07-02T09:33:44;100164.53;;;19.32;100.00
68594;BME280;55563;52.416;13.548;2023-07-02T09:35:45;100167.06;;;19.28;100.00
68594;BME280;55563;52.416;13.548;2023-07-02T09:37:46;100170.34;;;19.13;100.00
68594;BME280;55563;52.416;13.548;2023-07-02T09:39:50;100176.19;;;19.27;100.00
68594;BME280;55563;52.416;13.548;2023-07-02T09:41:51;100175.81;;;19.16;100.00
68594;BME280;55563;52.416;13.548;2023-07-02T09:43:52;100183.31;;;19.14;100.00
68594;BME280;55563;52.416;13.548;2023-07-02T09:45:54;100178.97;;;19.10;100.00
68594;BME280;55563;52.416;13.548;2023-07-02T09:47:57;100170.34;;;19.13;100.00
68594;BME280;55563;52.416;13.548;2023-07-02T09:50:03;100181.50;;;19.27;100.00
68594;BME280;55563;52.416;13.548;2023-07-02T09:52:07;100182.34;;;19.40;100.00
68594;BME280;55563;52.416;13.548;2023-07-02T09:54:09;100175.59;;;19.42;100.00
68594;BME280;55563;52.416;13.548;2023-07-02T09:56:10;100183.59;;;19.75;100.00
68594;BME280;55563;52.416;13.548;2023-07-02T09:58:11;100180.50;;;19.85;100.00
68594;BME280;55563;52.416;13.548;2023-07-02T10:00:13;100175.91;;;19.86;100.00
68594;BME280;55563;52.416;13.548;2023-07-02T10:02:14;100173.25;;;19.86;100.00
68594;BME280;55563;52.416;13.548;2023-07-02T10:04:16;100178.00;;;19.68;100.00
68594;BME280;55563;52.416;13.548;2023-07-02T10:06:18;100175.03;;;19.82;100.00
68594;BME280;55563;52.416;13.548;2023-07-02T10:08:19;100181.44;;;19.69;100.00
68594;BME280;55563;52.416;13.548;2023-07-02T10:10:29;100162.03;;;19.80;100.00
68594;BME280;55563;52.416;13.548;2023-07-02T10:12:30;100175.63;;;19.99;100.00
68594;BME280;55563;52.416;13.548;2023-07-02T10:14:47;100168.06;;;20.14;100.00
68594;BME280;55563;52.416;13.548;2023-07-02T10:16:51;100163.72;;;20.21;100.00
68594;BME280;55563;52.416;13.548;2023-07-02T10:18:52;100169.31;;;20.40;100.00
68594;BME280;55563;52.416;13.548;2023-07-02T10:20:52;100165.31;;;20.47;100.00